Etusivu
METAR-TAF:

METAR-TAF

Lentoasemat :

Parsons, Tennessee, Yhdysvallat

Leveyspiiri: 35-39-23N, Pituuspiiri: 088-11-43W, korkeus merenpinnasta: 149 m

Tämänhetkinen sää

Tämä raportti tehtiin 31 minuuttia sitten, kello 16.55 UTC
Tuuli 4 kn eri suunnista puuskistuen 11 kn:hen
Lämpötila 7°C
Kosteus 36%
Ilmanpaine 1033 hPa
Näkyvyys: 16.1 km
selkeää

METAR: KPVE 221655Z AUTO VRB04G11KT 10SM CLR 07/M07 A3049 RMK A01

Aika: 11:26 (17:26 UTC)


TAF: puuttuu

Säähavainnot ja -ennusteet yli 4000 lentoasemalta (METAR- ja TAF-raportit).

Käytössä olevat sääasemat on merkitty karttaan keltaisilla ja punaisilla pisteillä.

Aseta hiiri pisteen päälle nähdäksesi sääaseman nimen.

Klikkaa sitten nähdäksesi säähavainnot ja -ennusteet.

Kartan vaihtaminen: klikkaa mustalla rastilla varustettuja vihreitä pisteitä, niin voit zoomata sisään; viivalla varustettua vihreää pistettä, niin voit zoomata ulos tai vihreitä nuolia, niin pääset viereisille kartoille.


METAR-TAF: